sensor_id;sensor_type;location;lat;lon;timestamp;pressure;altitude;pressure_sealevel;temperature;humidity
42691;BME280;28306;55.744;37.578;2022-07-18T00:02:01;99821.84;;;16.92;61.88
42691;BME280;28306;55.744;37.578;2022-07-18T00:04:28;99821.44;;;16.96;61.81
42691;BME280;28306;55.744;37.578;2022-07-18T00:06:54;99809.81;;;16.82;61.90
42691;BME280;28306;55.744;37.578;2022-07-18T00:09:20;99809.22;;;16.80;61.87
42691;BME280;28306;55.744;37.578;2022-07-18T00:11:48;99820.56;;;16.82;62.06
42691;BME280;28306;55.744;37.578;2022-07-18T00:14:14;99818.53;;;16.84;61.99
42691;BME280;28306;55.744;37.578;2022-07-18T00:16:40;99823.09;;;16.90;61.53
42691;BME280;28306;55.744;37.578;2022-07-18T00:19:05;99824.34;;;16.87;61.89
42691;BME280;28306;55.744;37.578;2022-07-18T00:21:32;99816.66;;;16.84;62.04
42691;BME280;28306;55.744;37.578;2022-07-18T00:23:58;99817.28;;;16.80;62.23
42691;BME280;28306;55.744;37.578;2022-07-18T00:26:24;99818.53;;;16.77;62.17
42691;BME280;28306;55.744;37.578;2022-07-18T00:28:49;99820.56;;;16.82;62.21
42691;BME280;28306;55.744;37.578;2022-07-18T00:31:15;99817.69;;;16.83;62.12
42691;BME280;28306;55.744;37.578;2022-07-18T00:33:41;99818.53;;;16.84;62.32
42691;BME280;28306;55.744;37.578;2022-07-18T00:36:07;99814.19;;;16.83;62.42
42691;BME280;28306;55.744;37.578;2022-07-18T00:38:33;99820.41;;;16.90;62.24
42691;BME280;28306;55.744;37.578;2022-07-18T00:40:58;99822.69;;;17.00;61.90
42691;BME280;28306;55.744;37.578;2022-07-18T00:43:24;99816.69;;;16.91;62.11
42691;BME280;28306;55.744;37.578;2022-07-18T00:45:50;99809.66;;;16.90;62.22
42691;BME280;28306;55.744;37.578;2022-07-18T00:48:18;99811.94;;;16.93;62.20
42691;BME280;28306;55.744;37.578;2022-07-18T00:50:44;99814.41;;;17.01;61.93
42691;BME280;28306;55.744;37.578;2022-07-18T00:53:10;99806.56;;;17.00;62.06
42691;BME280;28306;55.744;37.578;2022-07-18T00:55:42;99819.78;;;17.08;61.63
42691;BME280;28306;55.744;37.578;2022-07-18T00:58:09;99822.25;;;17.03;61.52
42691;BME280;28306;55.744;37.578;2022-07-18T01:00:35;99819.78;;;17.01;61.54
42691;BME280;28306;55.744;37.578;2022-07-18T01:03:19;99812.53;;;17.02;61.28
42691;BME280;28306;55.744;37.578;2022-07-18T01:05:45;99817.50;;;17.05;61.18
42691;BME280;28306;55.744;37.578;2022-07-18T01:08:11;99807.59;;;17.05;61.10
42691;BME280;28306;55.744;37.578;2022-07-18T01:10:37;99802.84;;;17.01;61.52
42691;BME280;28306;55.744;37.578;2022-07-18T01:13:02;99809.03;;;17.01;61.45
42691;BME280;28306;55.744;37.578;2022-07-18T01:15:28;99803.88;;;16.93;61.85
42691;BME280;28306;55.744;37.578;2022-07-18T01:17:54;99794.56;;;16.89;62.17
42691;BME280;28306;55.744;37.578;2022-07-18T01:20:19;99805.50;;;16.94;62.00
42691;BME280;28306;55.744;37.578;2022-07-18T01:22:45;99798.50;;;16.93;62.29
42691;BME280;28306;55.744;37.578;2022-07-18T01:25:11;99798.50;;;16.93;62.01
42691;BME280;28306;55.744;37.578;2022-07-18T01:27:37;99807.38;;;17.00;61.96
42691;BME280;28306;55.744;37.578;2022-07-18T01:30:04;99801.19;;;17.00;62.00
42691;BME280;28306;55.744;37.578;2022-07-18T01:32:30;99796.00;;;16.98;62.46
42691;BME280;28306;55.744;37.578;2022-07-18T01:34:56;99803.25;;;17.04;62.06
42691;BME280;28306;55.744;37.578;2022-07-18T01:37:22;99800.94;;;17.08;61.97
42691;BME280;28306;55.744;37.578;2022-07-18T01:39:48;99806.09;;;17.16;61.54
42691;BME280;28306;55.744;37.578;2022-07-18T01:42:15;99801.56;;;17.17;61.69
42691;BME280;28306;55.744;37.578;2022-07-18T01:44:41;99806.09;;;17.23;61.48
42691;BME280;28306;55.744;37.578;2022-07-18T01:47:09;99806.50;;;17.26;61.21
42691;BME280;28306;55.744;37.578;2022-07-18T01:49:35;99796.38;;;17.22;60.83
42691;BME280;28306;55.744;37.578;2022-07-18T01:52:02;99800.31;;;17.13;60.85
42691;BME280;28306;55.744;37.578;2022-07-18T01:54:30;99795.16;;;17.11;61.21
42691;BME280;28306;55.744;37.578;2022-07-18T01:56:59;99789.19;;;17.09;60.90
42691;BME280;28306;55.744;37.578;2022-07-18T01:59:25;99802.00;;;17.00;60.52
42691;BME280;28306;55.744;37.578;2022-07-18T02:01:50;99796.63;;;17.00;60.51
42691;BME280;28306;55.744;37.578;2022-07-18T02:04:16;99797.25;;;17.02;60.29
42691;BME280;28306;55.744;37.578;2022-07-18T02:06:42;99794.13;;;17.12;60.36
42691;BME280;28306;55.744;37.578;2022-07-18T02:09:08;99790.59;;;17.18;59.85
42691;BME280;28306;55.744;37.578;2022-07-18T02:11:35;99790.19;;;17.21;59.62
42691;BME280;28306;55.744;37.578;2022-07-18T02:14:01;99785.22;;;17.25;59.88
42691;BME280;28306;55.744;37.578;2022-07-18T02:16:27;99787.72;;;17.20;60.08
42691;BME280;28306;55.744;37.578;2022-07-18T02:18:54;99797.19;;;17.22;59.96
42691;BME280;28306;55.744;37.578;2022-07-18T02:21:23;99790.81;;;17.17;60.10
42691;BME280;28306;55.744;37.578;2022-07-18T02:23:49;99792.25;;;17.26;60.35
42691;BME280;28306;55.744;37.578;2022-07-18T02:26:16;99788.28;;;17.28;60.16
42691;BME280;28306;55.744;37.578;2022-07-18T02:28:42;99797.38;;;17.34;59.95
42691;BME280;28306;55.744;37.578;2022-07-18T02:31:08;99796.97;;;17.37;59.96
42691;BME280;28306;55.744;37.578;2022-07-18T02:33:34;99786.44;;;17.29;59.52
42691;BME280;28306;55.744;37.578;2022-07-18T02:36:00;99797.38;;;17.34;59.59
42691;BME280;28306;55.744;37.578;2022-07-18T02:38:25;99793.88;;;17.34;59.34
42691;BME280;28306;55.744;37.578;2022-07-18T02:40:51;99792.00;;;17.34;59.09
42691;BME280;28306;55.744;37.578;2022-07-18T02:43:17;99794.72;;;17.27;59.37
42691;BME280;28306;55.744;37.578;2022-07-18T02:45:42;99791.63;;;17.17;59.76
42691;BME280;28306;55.744;37.578;2022-07-18T02:48:08;99790.41;;;17.06;60.49
42691;BME280;28306;55.744;37.578;2022-07-18T02:50:34;99784.25;;;16.99;60.85
42691;BME280;28306;55.744;37.578;2022-07-18T02:53:00;99786.09;;;16.92;61.52
42691;BME280;28306;55.744;37.578;2022-07-18T02:55:25;99789.19;;;16.96;61.57
42691;BME280;28306;55.744;37.578;2022-07-18T02:57:51;99785.06;;;17.00;61.45
42691;BME280;28306;55.744;37.578;2022-07-18T03:00:17;99791.47;;;17.05;61.36
42691;BME280;28306;55.744;37.578;2022-07-18T03:02:44;99787.72;;;17.06;61.43
42691;BME280;28306;55.744;37.578;2022-07-18T03:05:10;99792.47;;;17.11;61.33
42691;BME280;28306;55.744;37.578;2022-07-18T03:07:36;99791.00;;;17.22;60.77
42691;BME280;28306;55.744;37.578;2022-07-18T03:10:03;99787.09;;;17.24;60.31
42691;BME280;28306;55.744;37.578;2022-07-18T03:12:28;99793.66;;;17.35;60.31
42691;BME280;28306;55.744;37.578;2022-07-18T03:14:54;99793.66;;;17.42;59.96
42691;BME280;28306;55.744;37.578;2022-07-18T03:17:20;99795.69;;;17.46;59.38
42691;BME280;28306;55.744;37.578;2022-07-18T03:19:45;99792.16;;;17.53;59.14
42691;BME280;28306;55.744;37.578;2022-07-18T03:22:11;99772.34;;;17.40;58.91
42691;BME280;28306;55.744;37.578;2022-07-18T03:24:36;99801.22;;;17.58;58.60
42691;BME280;28306;55.744;37.578;2022-07-18T03:27:03;99785.13;;;17.52;58.32
42691;BME280;28306;55.744;37.578;2022-07-18T03:29:28;99792.72;;;17.61;58.20
42691;BME280;28306;55.744;37.578;2022-07-18T03:31:54;99791.91;;;17.61;58.40
42691;BME280;28306;55.744;37.578;2022-07-18T03:34:20;99794.78;;;17.66;58.51
42691;BME280;28306;55.744;37.578;2022-07-18T03:36:45;99797.50;;;17.59;59.03
42691;BME280;28306;55.744;37.578;2022-07-18T03:39:11;99796.91;;;17.57;59.04
42691;BME280;28306;55.744;37.578;2022-07-18T03:41:38;99777.44;;;17.55;59.41
42691;BME280;28306;55.744;37.578;2022-07-18T03:44:05;99793.75;;;17.67;59.15
42691;BME280;28306;55.744;37.578;2022-07-18T03:46:30;99797.44;;;17.79;58.95
42691;BME280;28306;55.744;37.578;2022-07-18T03:48:56;99789.75;;;17.83;58.49
42691;BME280;28306;55.744;37.578;2022-07-18T03:51:22;99792.81;;;17.87;58.18
42691;BME280;28306;55.744;37.578;2022-07-18T03:53:48;99799.25;;;17.92;57.09
42691;BME280;28306;55.744;37.578;2022-07-18T03:56:14;99776.91;;;17.85;56.93
42691;BME280;28306;55.744;37.578;2022-07-18T03:58:40;99788.88;;;17.96;56.88
42691;BME280;28306;55.744;37.578;2022-07-18T04:01:06;99773.59;;;17.90;56.57
42691;BME280;28306;55.744;37.578;2022-07-18T04:03:32;99792.41;;;17.96;56.54
42691;BME280;28306;55.744;37.578;2022-07-18T04:05:57;99801.91;;;17.99;56.15
42691;BME280;28306;55.744;37.578;2022-07-18T04:08:23;99801.31;;;17.97;56.40
42691;BME280;28306;55.744;37.578;2022-07-18T04:10:49;99788.88;;;17.96;56.40
42691;BME280;28306;55.744;37.578;2022-07-18T04:13:14;99780.81;;;17.96;55.86
42691;BME280;28306;55.744;37.578;2022-07-18T04:15:40;99804.59;;;18.06;55.80
42691;BME280;28306;55.744;37.578;2022-07-18T04:18:07;99798.56;;;18.10;55.25
42691;BME280;28306;55.744;37.578;2022-07-18T04:20:34;99797.66;;;18.16;55.36
42691;BME280;28306;55.744;37.578;2022-07-18T04:23:03;99800.78;;;18.20;55.54
42691;BME280;28306;55.744;37.578;2022-07-18T04:25:39;99801.16;;;18.24;55.95
42691;BME280;28306;55.744;37.578;2022-07-18T04:28:06;99800.34;;;18.23;55.49
42691;BME280;28306;55.744;37.578;2022-07-18T04:30:32;99805.31;;;18.19;55.26
42691;BME280;28306;55.744;37.578;2022-07-18T04:33:01;99805.75;;;18.16;55.36
42691;BME280;28306;55.744;37.578;2022-07-18T04:35:27;99794.41;;;18.08;55.04
42691;BME280;28306;55.744;37.578;2022-07-18T04:37:53;99802.53;;;18.01;55.75
42691;BME280;28306;55.744;37.578;2022-07-18T04:40:19;99793.84;;;17.99;55.93
42691;BME280;28306;55.744;37.578;2022-07-18T04:42:45;99798.34;;;18.05;55.77
42691;BME280;28306;55.744;37.578;2022-07-18T04:45:11;99795.19;;;18.15;55.80
42691;BME280;28306;55.744;37.578;2022-07-18T04:47:37;99791.59;;;18.28;55.38
42691;BME280;28306;55.744;37.578;2022-07-18T04:50:04;99788.66;;;18.36;55.04
42691;BME280;28306;55.744;37.578;2022-07-18T04:52:40;99776.19;;;18.42;54.93
42691;BME280;28306;55.744;37.578;2022-07-18T04:55:07;99787.19;;;18.40;54.65
42691;BME280;28306;55.744;37.578;2022-07-18T04:57:33;99777.88;;;18.36;55.00
42691;BME280;28306;55.744;37.578;2022-07-18T05:00:03;99782.97;;;18.44;54.44
42691;BME280;28306;55.744;37.578;2022-07-18T05:02:30;99769.00;;;18.54;54.09
42691;BME280;28306;55.744;37.578;2022-07-18T05:04:55;99782.91;;;18.58;54.03
42691;BME280;28306;55.744;37.578;2022-07-18T05:07:21;99772.66;;;18.66;53.96
42691;BME280;28306;55.744;37.578;2022-07-18T05:09:46;99774.63;;;18.78;53.67
42691;BME280;28306;55.744;37.578;2022-07-18T05:12:12;99783.44;;;18.91;53.15
42691;BME280;28306;55.744;37.578;2022-07-18T05:14:38;99779.63;;;18.99;53.02
42691;BME280;28306;55.744;37.578;2022-07-18T05:17:03;99784.53;;;19.09;52.77
42691;BME280;28306;55.744;37.578;2022-07-18T05:19:29;99786.31;;;19.15;52.93
42691;BME280;28306;55.744;37.578;2022-07-18T05:21:54;99791.25;;;19.18;52.73
42691;BME280;28306;55.744;37.578;2022-07-18T05:24:20;99786.31;;;19.15;52.67
42691;BME280;28306;55.744;37.578;2022-07-18T05:26:46;99792.91;;;19.01;52.26
42691;BME280;28306;55.744;37.578;2022-07-18T05:29:12;99794.00;;;18.93;52.36
42691;BME280;28306;55.744;37.578;2022-07-18T05:31:40;99791.25;;;19.00;52.52
42691;BME280;28306;55.744;37.578;2022-07-18T05:34:07;99801.59;;;19.03;52.52
42691;BME280;28306;55.744;37.578;2022-07-18T05:36:33;99807.75;;;19.10;52.24
42691;BME280;28306;55.744;37.578;2022-07-18T05:38:59;99798.97;;;19.15;52.30
42691;BME280;28306;55.744;37.578;2022-07-18T05:41:25;99790.81;;;19.21;51.68
42691;BME280;28306;55.744;37.578;2022-07-18T05:43:50;99793.25;;;19.30;51.34
42691;BME280;28306;55.744;37.578;2022-07-18T05:46:16;99791.59;;;19.29;51.40
42691;BME280;28306;55.744;37.578;2022-07-18T05:48:41;99788.22;;;19.33;51.67
42691;BME280;28306;55.744;37.578;2022-07-18T05:51:07;99779.44;;;19.38;51.49
42691;BME280;28306;55.744;37.578;2022-07-18T05:53:33;99774.56;;;19.47;52.01
42691;BME280;28306;55.744;37.578;2022-07-18T05:55:58;99772.38;;;19.55;51.89
42691;BME280;28306;55.744;37.578;2022-07-18T05:58:24;99769.47;;;19.57;51.85
42691;BME280;28306;55.744;37.578;2022-07-18T06:00:50;99765.63;;;19.65;51.17
42691;BME280;28306;55.744;37.578;2022-07-18T06:03:15;99758.66;;;19.57;51.23
42691;BME280;28306;55.744;37.578;2022-07-18T06:05:41;99758.44;;;19.58;50.76
42691;BME280;28306;55.744;37.578;2022-07-18T06:08:07;99750.00;;;19.55;50.25
42691;BME280;28306;55.744;37.578;2022-07-18T06:10:32;99751.56;;;19.62;50.34
42691;BME280;28306;55.744;37.578;2022-07-18T06:12:58;99746.81;;;19.76;49.86
42691;BME280;28306;55.744;37.578;2022-07-18T06:15:24;99750.06;;;19.97;49.51
42691;BME280;28306;55.744;37.578;2022-07-18T06:17:50;99744.75;;;20.21;49.39
42691;BME280;28306;55.744;37.578;2022-07-18T06:20:17;99750.16;;;20.32;48.87
42691;BME280;28306;55.744;37.578;2022-07-18T06:22:43;99735.97;;;20.49;48.58
42691;BME280;28306;55.744;37.578;2022-07-18T06:25:09;99735.50;;;20.64;48.08
42691;BME280;28306;55.744;37.578;2022-07-18T06:27:34;99742.00;;;20.86;47.85
42691;BME280;28306;55.744;37.578;2022-07-18T06:30:04;99743.88;;;20.98;47.46
42691;BME280;28306;55.744;37.578;2022-07-18T06:32:30;99734.94;;;20.85;46.73
42691;BME280;28306;55.744;37.578;2022-07-18T06:34:56;99719.44;;;20.69;46.68
42691;BME280;28306;55.744;37.578;2022-07-18T06:37:22;99729.28;;;20.75;47.08
42691;BME280;28306;55.744;37.578;2022-07-18T06:39:47;99729.53;;;20.85;46.54
42691;BME280;28306;55.744;37.578;2022-07-18T06:42:13;99737.41;;;20.99;46.23
42691;BME280;28306;55.744;37.578;2022-07-18T06:44:40;99738.59;;;20.91;45.95
42691;BME280;28306;55.744;37.578;2022-07-18T06:47:06;99732.81;;;20.87;46.21
42691;BME280;28306;55.744;37.578;2022-07-18T06:49:32;99732.47;;;20.84;45.83
42691;BME280;28306;55.744;37.578;2022-07-18T06:51:58;99724.72;;;20.76;46.26
42691;BME280;28306;55.744;37.578;2022-07-18T06:54:23;99730.94;;;20.76;46.34
42691;BME280;28306;55.744;37.578;2022-07-18T06:56:56;99726.72;;;20.80;46.59
42691;BME280;28306;55.744;37.578;2022-07-18T06:59:22;99713.06;;;20.75;46.91
42691;BME280;28306;55.744;37.578;2022-07-18T07:01:47;99724.72;;;20.76;46.54
42691;BME280;28306;55.744;37.578;2022-07-18T07:04:13;99721.69;;;20.72;46.21
42691;BME280;28306;55.744;37.578;2022-07-18T07:06:39;99726.25;;;20.72;46.45
42691;BME280;28306;55.744;37.578;2022-07-18T07:09:05;99729.78;;;20.72;46.47
42691;BME280;28306;55.744;37.578;2022-07-18T07:11:31;99721.91;;;20.70;46.75
42691;BME280;28306;55.744;37.578;2022-07-18T07:13:57;99733.41;;;20.78;47.23
42691;BME280;28306;55.744;37.578;2022-07-18T07:16:23;99734.00;;;20.80;46.57
42691;BME280;28306;55.744;37.578;2022-07-18T07:18:49;99732.38;;;20.79;46.35
42691;BME280;28306;55.744;37.578;2022-07-18T07:21:15;99729.41;;;20.68;45.66
42691;BME280;28306;55.744;37.578;2022-07-18T07:23:40;99734.34;;;20.72;45.98
42691;BME280;28306;55.744;37.578;2022-07-18T07:26:07;99734.69;;;20.75;45.93
42691;BME280;28306;55.744;37.578;2022-07-18T07:28:33;99729.44;;;20.80;46.55
42691;BME280;28306;55.744;37.578;2022-07-18T07:30:58;99726.03;;;20.85;45.77
42691;BME280;28306;55.744;37.578;2022-07-18T07:33:24;99726.00;;;20.97;45.42
42691;BME280;28306;55.744;37.578;2022-07-18T07:35:50;99728.94;;;21.07;45.33
42691;BME280;28306;55.744;37.578;2022-07-18T07:38:15;99726.09;;;21.14;45.34
42691;BME280;28306;55.744;37.578;2022-07-18T07:40:48;99731.13;;;21.22;45.50
42691;BME280;28306;55.744;37.578;2022-07-18T07:43:15;99735.00;;;21.26;45.81
42691;BME280;28306;55.744;37.578;2022-07-18T07:45:42;99741.69;;;21.35;44.64
42691;BME280;28306;55.744;37.578;2022-07-18T07:48:08;99735.72;;;21.33;44.65
42691;BME280;28306;55.744;37.578;2022-07-18T07:50:34;99735.56;;;21.40;44.55
42691;BME280;28306;55.744;37.578;2022-07-18T07:53:01;99733.53;;;21.47;43.84
42691;BME280;28306;55.744;37.578;2022-07-18T07:55:27;99720.09;;;21.64;43.12
42691;BME280;28306;55.744;37.578;2022-07-18T07:57:53;99718.41;;;21.75;41.94
42691;BME280;28306;55.744;37.578;2022-07-18T08:00:20;99718.59;;;21.85;41.74
42691;BME280;28306;55.744;37.578;2022-07-18T08:02:55;99712.72;;;22.05;41.67
42691;BME280;28306;55.744;37.578;2022-07-18T08:05:21;99704.59;;;22.22;41.81
42691;BME280;28306;55.744;37.578;2022-07-18T08:07:47;99700.88;;;22.28;40.89
42691;BME280;28306;55.744;37.578;2022-07-18T08:10:14;99695.59;;;22.34;40.72
42691;BME280;28306;55.744;37.578;2022-07-18T08:12:40;99693.75;;;22.22;40.23
42691;BME280;28306;55.744;37.578;2022-07-18T08:15:06;99692.91;;;22.05;39.89
42691;BME280;28306;55.744;37.578;2022-07-18T08:17:32;99691.44;;;21.97;40.30
42691;BME280;28306;55.744;37.578;2022-07-18T08:19:57;99685.63;;;22.05;40.32
42691;BME280;28306;55.744;37.578;2022-07-18T08:22:23;99680.44;;;22.21;40.43
42691;BME280;28306;55.744;37.578;2022-07-18T08:24:49;99675.69;;;22.28;40.25
42691;BME280;28306;55.744;37.578;2022-07-18T08:27:15;99678.91;;;22.42;39.98
42691;BME280;28306;55.744;37.578;2022-07-18T08:29:40;99679.28;;;22.67;38.95
42691;BME280;28306;55.744;37.578;2022-07-18T08:32:06;99676.97;;;22.76;39.07
42691;BME280;28306;55.744;37.578;2022-07-18T08:34:32;99684.91;;;22.83;38.76
42691;BME280;28306;55.744;37.578;2022-07-18T08:36:57;99676.63;;;22.73;38.87
42691;BME280;28306;55.744;37.578;2022-07-18T08:39:23;99672.84;;;22.74;39.01
42691;BME280;28306;55.744;37.578;2022-07-18T08:41:50;99675.88;;;22.77;38.79
42691;BME280;28306;55.744;37.578;2022-07-18T08:44:16;99668.69;;;22.66;39.24
42691;BME280;28306;55.744;37.578;2022-07-18T08:46:48;99665.53;;;22.74;39.51
42691;BME280;28306;55.744;37.578;2022-07-18T08:49:15;99656.72;;;22.62;39.63
42691;BME280;28306;55.744;37.578;2022-07-18T08:51:42;99656.72;;;22.62;39.36
42691;BME280;28306;55.744;37.578;2022-07-18T08:54:09;99666.66;;;22.56;39.35
42691;BME280;28306;55.744;37.578;2022-07-18T08:56:35;99651.28;;;22.62;39.72
42691;BME280;28306;55.744;37.578;2022-07-18T08:59:02;99661.50;;;22.77;38.94
42691;BME280;28306;55.744;37.578;2022-07-18T09:01:31;99661.53;;;22.99;39.23
42691;BME280;28306;55.744;37.578;2022-07-18T09:03:57;99663.91;;;23.12;39.19
42691;BME280;28306;55.744;37.578;2022-07-18T09:06:47;99664.41;;;23.09;38.59
42691;BME280;28306;55.744;37.578;2022-07-18T09:09:14;99647.69;;;23.00;38.67
42691;BME280;28306;55.744;37.578;2022-07-18T09:17:00;99660.34;;;22.73;39.21
42691;BME280;28306;55.744;37.578;2022-07-18T09:19:26;99652.22;;;22.73;40.13
42691;BME280;28306;55.744;37.578;2022-07-18T09:21:52;99649.69;;;22.66;40.38
42691;BME280;28306;55.744;37.578;2022-07-18T09:24:17;99646.00;;;22.55;40.29
42691;BME280;28306;55.744;37.578;2022-07-18T09:26:43;99640.31;;;22.35;39.83
42691;BME280;28306;55.744;37.578;2022-07-18T09:29:15;99651.03;;;22.29;40.54
42691;BME280;28306;55.744;37.578;2022-07-18T09:31:49;99645.31;;;22.26;40.45
42691;BME280;28306;55.744;37.578;2022-07-18T09:34:32;99617.38;;;22.08;40.26
42691;BME280;28306;55.744;37.578;2022-07-18T09:36:58;99644.66;;;22.19;40.53
42691;BME280;28306;55.744;37.578;2022-07-18T09:39:23;99645.31;;;22.26;40.34
42691;BME280;28306;55.744;37.578;2022-07-18T09:41:49;99627.72;;;22.28;40.65
42691;BME280;28306;55.744;37.578;2022-07-18T09:44:18;99642.84;;;22.41;39.67
42691;BME280;28306;55.744;37.578;2022-07-18T09:47:00;99633.47;;;22.49;39.41
42691;BME280;28306;55.744;37.578;2022-07-18T09:49:30;99634.94;;;22.40;39.04
42691;BME280;28306;55.744;37.578;2022-07-18T09:52:05;99625.84;;;22.29;40.08
42691;BME280;28306;55.744;37.578;2022-07-18T09:54:39;99619.81;;;22.27;39.03
42691;BME280;28306;55.744;37.578;2022-07-18T09:57:05;99621.00;;;22.14;39.16
42691;BME280;28306;55.744;37.578;2022-07-18T09:59:32;99619.84;;;22.10;39.46
42691;BME280;28306;55.744;37.578;2022-07-18T10:01:58;99609.91;;;22.16;39.16
42691;BME280;28306;55.744;37.578;2022-07-18T10:04:24;99611.88;;;22.20;38.88
42691;BME280;28306;55.744;37.578;2022-07-18T10:06:50;99607.63;;;22.24;38.68
42691;BME280;28306;55.744;37.578;2022-07-18T10:09:15;99612.06;;;22.13;38.82
42691;BME280;28306;55.744;37.578;2022-07-18T10:11:42;99611.97;;;22.08;39.27
42691;BME280;28306;55.744;37.578;2022-07-18T10:14:08;99611.81;;;21.98;39.75
42691;BME280;28306;55.744;37.578;2022-07-18T10:19:00;99611.63;;;21.88;40.43
42691;BME280;28306;55.744;37.578;2022-07-18T10:21:26;99612.13;;;21.85;40.78
42691;BME280;28306;55.744;37.578;2022-07-18T10:23:55;99616.91;;;21.77;40.95
42691;BME280;28306;55.744;37.578;2022-07-18T10:26:27;99609.75;;;21.71;41.07
42691;BME280;28306;55.744;37.578;2022-07-18T10:31:24;99609.44;;;21.68;41.32
42691;BME280;28306;55.744;37.578;2022-07-18T10:33:51;99596.13;;;21.83;41.36
42691;BME280;28306;55.744;37.578;2022-07-18T10:36:19;99592.69;;;22.05;40.88
42691;BME280;28306;55.744;37.578;2022-07-18T10:50:00;99591.53;;;22.57;38.86
42691;BME280;28306;55.744;37.578;2022-07-18T10:57:27;99584.28;;;23.07;38.39
42691;BME280;28306;55.744;37.578;2022-07-18T11:02:41;99575.25;;;23.50;37.88
42691;BME280;28306;55.744;37.578;2022-07-18T11:18:30;99571.88;;;22.27;38.51
42691;BME280;28306;55.744;37.578;2022-07-18T11:20:56;99571.03;;;22.27;38.83
42691;BME280;28306;55.744;37.578;2022-07-18T11:23:26;99559.09;;;22.23;39.03
42691;BME280;28306;55.744;37.578;2022-07-18T11:25:55;99556.53;;;22.16;39.42
42691;BME280;28306;55.744;37.578;2022-07-18T11:28:22;99564.84;;;22.09;39.65
42691;BME280;28306;55.744;37.578;2022-07-18T11:31:02;99560.84;;;21.95;40.33
42691;BME280;28306;55.744;37.578;2022-07-18T11:33:29;99562.75;;;21.77;40.37
42691;BME280;28306;55.744;37.578;2022-07-18T11:36:16;99560.69;;;21.68;40.31
42691;BME280;28306;55.744;37.578;2022-07-18T11:38:53;99563.06;;;21.64;40.13
42691;BME280;28306;55.744;37.578;2022-07-18T11:41:21;99558.00;;;21.68;39.73
42691;BME280;28306;55.744;37.578;2022-07-18T11:43:52;99556.16;;;21.73;39.92
42691;BME280;28306;55.744;37.578;2022-07-18T11:46:19;99563.91;;;21.65;40.15
42691;BME280;28306;55.744;37.578;2022-07-18T11:48:47;99553.38;;;21.51;40.08
42691;BME280;28306;55.744;37.578;2022-07-18T11:51:14;99543.59;;;21.50;40.61
42691;BME280;28306;55.744;37.578;2022-07-18T11:53:48;99549.59;;;21.52;40.04
42691;BME280;28306;55.744;37.578;2022-07-18T11:56:15;99559.25;;;21.48;40.06
42691;BME280;28306;55.744;37.578;2022-07-18T11:58:43;99551.84;;;21.43;40.52
42691;BME280;28306;55.744;37.578;2022-07-18T12:01:09;99546.44;;;21.43;40.88
42691;BME280;28306;55.744;37.578;2022-07-18T12:03:49;99532.00;;;21.21;41.19
42691;BME280;28306;55.744;37.578;2022-07-18T12:06:22;99547.13;;;21.05;41.70
42691;BME280;28306;55.744;37.578;2022-07-18T12:08:56;99537.13;;;21.05;41.36
42691;BME280;28306;55.744;37.578;2022-07-18T12:11:33;99542.22;;;21.19;42.17
42691;BME280;28306;55.744;37.578;2022-07-18T12:16:48;99534.84;;;21.31;42.02
42691;BME280;28306;55.744;37.578;2022-07-18T12:19:20;99534.81;;;21.43;42.23
42691;BME280;28306;55.744;37.578;2022-07-18T12:24:29;99527.59;;;23.32;37.79
42691;BME280;28306;55.744;37.578;2022-07-18T12:27:18;99535.97;;;22.81;37.21
42691;BME280;28306;55.744;37.578;2022-07-18T12:32:29;99527.69;;;21.88;39.26
42691;BME280;28306;55.744;37.578;2022-07-18T12:34:57;99562.81;;;21.66;40.22
42691;BME280;28306;55.744;37.578;2022-07-18T12:37:27;99559.69;;;21.28;41.19
42691;BME280;28306;55.744;37.578;2022-07-18T12:40:00;99568.00;;;21.10;42.18
42691;BME280;28306;55.744;37.578;2022-07-18T12:42:32;99576.22;;;20.86;43.43
42691;BME280;28306;55.744;37.578;2022-07-18T12:44:58;99584.25;;;20.45;45.64
42691;BME280;28306;55.744;37.578;2022-07-18T12:47:24;99584.41;;;20.15;47.08
42691;BME280;28306;55.744;37.578;2022-07-18T12:49:50;99582.88;;;20.07;48.21
42691;BME280;28306;55.744;37.578;2022-07-18T12:52:17;99583.13;;;20.06;48.02
42691;BME280;28306;55.744;37.578;2022-07-18T12:54:43;99580.75;;;19.97;48.55
42691;BME280;28306;55.744;37.578;2022-07-18T12:57:08;99582.28;;;19.93;48.18
42691;BME280;28306;55.744;37.578;2022-07-18T12:59:34;99589.59;;;20.05;48.52
42691;BME280;28306;55.744;37.578;2022-07-18T13:01:59;99583.69;;;20.20;48.91
42691;BME280;28306;55.744;37.578;2022-07-18T13:04:25;99576.63;;;20.42;48.37
42691;BME280;28306;55.744;37.578;2022-07-18T13:06:51;99583.91;;;20.77;47.57
42691;BME280;28306;55.744;37.578;2022-07-18T13:09:16;99560.75;;;21.56;45.74
42691;BME280;28306;55.744;37.578;2022-07-18T13:11:42;99576.22;;;22.45;43.78
42691;BME280;28306;55.744;37.578;2022-07-18T13:14:13;99569.53;;;22.31;43.59
42691;BME280;28306;55.744;37.578;2022-07-18T13:16:39;99556.78;;;22.31;43.65
42691;BME280;28306;55.744;37.578;2022-07-18T13:19:05;99559.88;;;23.93;40.95
42691;BME280;28306;55.744;37.578;2022-07-18T13:21:30;99549.88;;;25.31;38.78
42691;BME280;28306;55.744;37.578;2022-07-18T13:23:56;99537.44;;;26.67;36.69
42691;BME280;28306;55.744;37.578;2022-07-18T13:26:21;99545.41;;;27.53;34.50
42691;BME280;28306;55.744;37.578;2022-07-18T13:28:47;99547.75;;;28.23;32.97
42691;BME280;28306;55.744;37.578;2022-07-18T13:31:13;99549.91;;;28.75;32.37
42691;BME280;28306;55.744;37.578;2022-07-18T13:33:38;99550.16;;;29.36;31.45
42691;BME280;28306;55.744;37.578;2022-07-18T13:36:04;99541.72;;;29.84;29.29
42691;BME280;28306;55.744;37.578;2022-07-18T13:38:29;99544.16;;;29.34;28.87
42691;BME280;28306;55.744;37.578;2022-07-18T13:40:55;99542.38;;;29.05;28.27